Altona, New York
Current Conditions -  °F | °C
As of 10:53 AM on Friday 28 Nov 2014 (Local Time) from KPBG Reporting Station
Broken Clouds Broken Clouds  
Wind Chill: 28°   Ceiling: 7000
Heat Index: 28°   Visibility: 10mi
Dew Point: 15°   Wind: 0mph
Humidity: 58%   Direction: NA
Pressure: 30.11"   Gusts: NA
Location:  44.89°N, 73.66°W
Report Text: KPBG 281553Z AUTO 00000KT 10SM FEW035 BKN070 M02/M09 A3011 RMK AO2 SLP200 T10221094
Loading
Personal Weather Stations






























Interactive Weather Map New forecast layout! Learn more

10-Day Weather Forecast

Advertisements
Track Severe Weather on mobile